sensor_id;sensor_type;location;lat;lon;timestamp;pressure;altitude;pressure_sealevel;temperature;humidity
2397;BME280;1209;48.410;9.054;2022-07-29T00:00:56;96099.16;;;19.55;100.00
2397;BME280;1209;48.410;9.054;2022-07-29T00:03:21;96095.94;;;19.41;100.00
2397;BME280;1209;48.410;9.054;2022-07-29T00:05:46;96084.09;;;19.43;100.00
2397;BME280;1209;48.410;9.054;2022-07-29T00:08:12;96089.72;;;19.47;100.00
2397;BME280;1209;48.410;9.054;2022-07-29T00:10:37;96082.91;;;19.51;100.00
2397;BME280;1209;48.410;9.054;2022-07-29T00:13:03;96083.13;;;19.49;100.00
2397;BME280;1209;48.410;9.054;2022-07-29T00:15:28;96086.84;;;19.37;100.00
2397;BME280;1209;48.410;9.054;2022-07-29T00:17:53;96080.44;;;19.21;100.00
2397;BME280;1209;48.410;9.054;2022-07-29T00:20:19;96081.13;;;19.16;100.00
2397;BME280;1209;48.410;9.054;2022-07-29T00:22:44;96074.72;;;19.01;100.00
2397;BME280;1209;48.410;9.054;2022-07-29T00:25:11;96080.13;;;19.06;100.00
2397;BME280;1209;48.410;9.054;2022-07-29T00:27:37;96078.16;;;18.90;100.00
2397;BME280;1209;48.410;9.054;2022-07-29T00:30:04;96078.50;;;19.05;100.00
2397;BME280;1209;48.410;9.054;2022-07-29T00:32:29;96065.59;;;19.08;100.00
2397;BME280;1209;48.410;9.054;2022-07-29T00:34:55;96067.22;;;19.09;100.00
2397;BME280;1209;48.410;9.054;2022-07-29T00:37:39;96066.38;;;19.21;100.00
2397;BME280;1209;48.410;9.054;2022-07-29T00:40:04;96060.38;;;19.25;100.00
2397;BME280;1209;48.410;9.054;2022-07-29T00:42:30;96060.34;;;19.37;100.00
2397;BME280;1209;48.410;9.054;2022-07-29T00:44:55;96056.13;;;19.24;100.00
2397;BME280;1209;48.410;9.054;2022-07-29T00:47:21;96054.84;;;19.27;100.00
2397;BME280;1209;48.410;9.054;2022-07-29T00:49:46;96058.50;;;19.37;100.00
2397;BME280;1209;48.410;9.054;2022-07-29T00:52:12;96049.69;;;19.20;100.00
2397;BME280;1209;48.410;9.054;2022-07-29T00:54:39;96051.00;;;19.06;100.00
2397;BME280;1209;48.410;9.054;2022-07-29T00:57:06;96040.97;;;19.08;100.00
2397;BME280;1209;48.410;9.054;2022-07-29T00:59:32;96039.59;;;19.05;100.00
2397;BME280;1209;48.410;9.054;2022-07-29T01:01:57;96043.53;;;19.03;100.00
2397;BME280;1209;48.410;9.054;2022-07-29T01:04:23;96050.09;;;19.00;100.00
2397;BME280;1209;48.410;9.054;2022-07-29T01:06:49;96046.97;;;18.92;100.00
2397;BME280;1209;48.410;9.054;2022-07-29T01:09:17;96040.88;;;18.79;100.00
2397;BME280;1209;48.410;9.054;2022-07-29T01:11:43;96044.13;;;18.70;100.00
2397;BME280;1209;48.410;9.054;2022-07-29T01:14:09;96040.56;;;18.64;100.00
2397;BME280;1209;48.410;9.054;2022-07-29T01:16:54;96030.41;;;18.61;100.00
2397;BME280;1209;48.410;9.054;2022-07-29T01:25:10;96027.66;;;18.56;100.00
2397;BME280;1209;48.410;9.054;2022-07-29T01:30:25;96033.28;;;18.60;100.00
2397;BME280;1209;48.410;9.054;2022-07-29T01:33:00;96038.47;;;18.66;100.00
2397;BME280;1209;48.410;9.054;2022-07-29T01:35:39;96031.47;;;18.72;100.00
2397;BME280;1209;48.410;9.054;2022-07-29T01:38:12;96028.59;;;18.73;100.00
2397;BME280;1209;48.410;9.054;2022-07-29T01:40:52;96028.25;;;18.70;100.00
2397;BME280;1209;48.410;9.054;2022-07-29T01:43:21;96026.53;;;18.64;100.00
2397;BME280;1209;48.410;9.054;2022-07-29T01:45:54;96019.38;;;18.76;100.00
2397;BME280;1209;48.410;9.054;2022-07-29T01:48:24;96016.38;;;18.84;100.00
2397;BME280;1209;48.410;9.054;2022-07-29T01:51:04;96012.47;;;18.98;100.00
2397;BME280;1209;48.410;9.054;2022-07-29T01:53:34;96020.50;;;18.92;100.00
2397;BME280;1209;48.410;9.054;2022-07-29T01:56:02;96016.94;;;18.86;100.00
2397;BME280;1209;48.410;9.054;2022-07-29T01:58:29;96013.38;;;18.92;100.00
2397;BME280;1209;48.410;9.054;2022-07-29T02:00:57;96013.97;;;18.94;100.00
2397;BME280;1209;48.410;9.054;2022-07-29T02:03:24;96009.00;;;18.98;100.00
2397;BME280;1209;48.410;9.054;2022-07-29T02:05:51;96010.38;;;18.88;100.00
2397;BME280;1209;48.410;9.054;2022-07-29T02:08:18;96016.94;;;18.98;100.00
2397;BME280;1209;48.410;9.054;2022-07-29T02:10:47;96018.09;;;19.02;100.00
2397;BME280;1209;48.410;9.054;2022-07-29T02:13:15;96018.44;;;18.82;100.00
2397;BME280;1209;48.410;9.054;2022-07-29T02:15:42;96019.00;;;18.84;100.00
2397;BME280;1209;48.410;9.054;2022-07-29T02:18:14;96016.59;;;18.94;100.00
2397;BME280;1209;48.410;9.054;2022-07-29T02:20:44;96010.16;;;18.78;100.00
2397;BME280;1209;48.410;9.054;2022-07-29T02:23:12;96007.50;;;18.90;100.00
2397;BME280;1209;48.410;9.054;2022-07-29T02:25:41;96002.69;;;18.99;100.00
2397;BME280;1209;48.410;9.054;2022-07-29T02:28:07;96009.00;;;18.98;100.00
2397;BME280;1209;48.410;9.054;2022-07-29T02:30:35;96014.41;;;19.03;100.00
2397;BME280;1209;48.410;9.054;2022-07-29T02:33:02;96012.09;;;19.06;100.00
2397;BME280;1209;48.410;9.054;2022-07-29T02:35:28;96005.78;;;18.96;100.00
2397;BME280;1209;48.410;9.054;2022-07-29T02:37:55;96011.19;;;18.89;100.00
2397;BME280;1209;48.410;9.054;2022-07-29T02:40:41;96022.56;;;18.90;100.00
2397;BME280;1209;48.410;9.054;2022-07-29T02:43:08;96016.25;;;18.79;100.00
2397;BME280;1209;48.410;9.054;2022-07-29T02:45:35;96024.09;;;18.74;100.00
2397;BME280;1209;48.410;9.054;2022-07-29T02:48:06;96027.41;;;18.58;100.00
2397;BME280;1209;48.410;9.054;2022-07-29T02:50:38;96025.47;;;18.53;100.00
2397;BME280;1209;48.410;9.054;2022-07-29T02:53:16;96024.28;;;18.37;100.00
2397;BME280;1209;48.410;9.054;2022-07-29T02:55:46;96025.31;;;18.36;100.00
2397;BME280;1209;48.410;9.054;2022-07-29T02:58:42;96026.69;;;18.39;100.00
2397;BME280;1209;48.410;9.054;2022-07-29T03:01:16;96026.13;;;18.37;100.00
2397;BME280;1209;48.410;9.054;2022-07-29T03:03:46;96030.84;;;18.35;100.00
2397;BME280;1209;48.410;9.054;2022-07-29T03:06:14;96030.16;;;18.28;100.00
2397;BME280;1209;48.410;9.054;2022-07-29T03:08:41;96032.44;;;18.24;100.00
2397;BME280;1209;48.410;9.054;2022-07-29T03:11:08;96029.22;;;18.22;100.00
2397;BME280;1209;48.410;9.054;2022-07-29T03:13:34;96024.97;;;18.21;100.00
2397;BME280;1209;48.410;9.054;2022-07-29T03:16:00;96030.47;;;18.19;100.00
2397;BME280;1209;48.410;9.054;2022-07-29T03:18:26;96026.00;;;18.20;100.00
2397;BME280;1209;48.410;9.054;2022-07-29T03:20:52;96035.41;;;18.16;100.00
2397;BME280;1209;48.410;9.054;2022-07-29T03:23:21;96037.81;;;18.06;100.00
2397;BME280;1209;48.410;9.054;2022-07-29T03:25:48;96036.44;;;18.03;100.00
2397;BME280;1209;48.410;9.054;2022-07-29T03:28:14;96038.16;;;17.98;100.00
2397;BME280;1209;48.410;9.054;2022-07-29T03:30:40;96031.75;;;17.75;100.00
2397;BME280;1209;48.410;9.054;2022-07-29T03:33:05;96028.44;;;17.80;100.00
2397;BME280;1209;48.410;9.054;2022-07-29T03:35:30;96033.03;;;17.84;100.00
2397;BME280;1209;48.410;9.054;2022-07-29T03:37:57;96034.78;;;17.90;100.00
2397;BME280;1209;48.410;9.054;2022-07-29T03:40:27;96040.06;;;17.90;100.00
2397;BME280;1209;48.410;9.054;2022-07-29T03:42:56;96039.84;;;17.92;100.00
2397;BME280;1209;48.410;9.054;2022-07-29T03:45:22;96034.88;;;17.84;100.00
2397;BME280;1209;48.410;9.054;2022-07-29T03:47:53;96035.91;;;17.83;100.00
2397;BME280;1209;48.410;9.054;2022-07-29T03:50:19;96039.00;;;17.80;100.00
2397;BME280;1209;48.410;9.054;2022-07-29T03:52:46;96033.13;;;17.78;100.00
2397;BME280;1209;48.410;9.054;2022-07-29T03:55:13;96037.84;;;17.76;100.00
2397;BME280;1209;48.410;9.054;2022-07-29T03:57:39;96040.94;;;17.73;100.00
2397;BME280;1209;48.410;9.054;2022-07-29T04:00:06;96037.72;;;17.71;100.00
2397;BME280;1209;48.410;9.054;2022-07-29T04:02:32;96039.56;;;17.70;100.00
2397;BME280;1209;48.410;9.054;2022-07-29T04:04:58;96031.97;;;17.74;100.00
2397;BME280;1209;48.410;9.054;2022-07-29T04:07:23;96032.78;;;17.74;100.00
2397;BME280;1209;48.410;9.054;2022-07-29T04:09:49;96027.59;;;17.68;100.00
2397;BME280;1209;48.410;9.054;2022-07-29T04:12:14;96035.13;;;17.64;100.00
2397;BME280;1209;48.410;9.054;2022-07-29T04:14:40;96035.13;;;17.64;100.00
2397;BME280;1209;48.410;9.054;2022-07-29T04:17:05;96038.81;;;17.63;100.00
2397;BME280;1209;48.410;9.054;2022-07-29T04:19:31;96043.72;;;17.59;100.00
2397;BME280;1209;48.410;9.054;2022-07-29T04:21:58;96040.50;;;17.57;100.00
2397;BME280;1209;48.410;9.054;2022-07-29T04:24:24;96045.44;;;17.54;100.00
2397;BME280;1209;48.410;9.054;2022-07-29T04:26:50;96046.69;;;17.51;100.00
2397;BME280;1209;48.410;9.054;2022-07-29T04:29:15;96042.03;;;17.47;100.00
2397;BME280;1209;48.410;9.054;2022-07-29T04:31:41;96043.66;;;17.48;100.00
2397;BME280;1209;48.410;9.054;2022-07-29T04:34:07;96035.16;;;17.46;100.00
2397;BME280;1209;48.410;9.054;2022-07-29T04:36:33;96031.66;;;17.52;100.00
2397;BME280;1209;48.410;9.054;2022-07-29T04:38:58;96032.59;;;17.57;100.00
2397;BME280;1209;48.410;9.054;2022-07-29T04:41:24;96038.91;;;17.56;100.00
2397;BME280;1209;48.410;9.054;2022-07-29T04:43:49;96034.78;;;17.60;100.00
2397;BME280;1209;48.410;9.054;2022-07-29T04:46:15;96028.47;;;17.61;100.00
2397;BME280;1209;48.410;9.054;2022-07-29T04:48:40;96025.53;;;17.70;100.00
2397;BME280;1209;48.410;9.054;2022-07-29T04:51:06;96023.13;;;17.68;100.00
2397;BME280;1209;48.410;9.054;2022-07-29T04:53:32;96030.66;;;17.65;100.00
2397;BME280;1209;48.410;9.054;2022-07-29T04:55:57;96035.19;;;17.76;100.00
2397;BME280;1209;48.410;9.054;2022-07-29T04:58:22;96033.06;;;17.66;100.00
2397;BME280;1209;48.410;9.054;2022-07-29T05:00:49;96032.28;;;17.66;100.00
2397;BME280;1209;48.410;9.054;2022-07-29T05:03:14;96028.47;;;17.61;100.00
2397;BME280;1209;48.410;9.054;2022-07-29T05:05:40;96031.34;;;17.60;100.00
2397;BME280;1209;48.410;9.054;2022-07-29T05:08:06;96033.53;;;17.63;100.00
2397;BME280;1209;48.410;9.054;2022-07-29T05:10:32;96041.69;;;17.61;100.00
2397;BME280;1209;48.410;9.054;2022-07-29T05:12:57;96035.94;;;17.65;100.00
2397;BME280;1209;48.410;9.054;2022-07-29T05:15:23;96044.47;;;17.67;100.00
2397;BME280;1209;48.410;9.054;2022-07-29T05:17:48;96045.13;;;17.62;100.00
2397;BME280;1209;48.410;9.054;2022-07-29T05:20:14;96048.91;;;17.66;100.00
2397;BME280;1209;48.410;9.054;2022-07-29T05:22:39;96050.91;;;17.71;100.00
2397;BME280;1209;48.410;9.054;2022-07-29T05:25:05;96057.69;;;17.67;100.00
2397;BME280;1209;48.410;9.054;2022-07-29T05:27:31;96065.28;;;17.75;100.00
2397;BME280;1209;48.410;9.054;2022-07-29T05:29:56;96059.19;;;17.74;100.00
2397;BME280;1209;48.410;9.054;2022-07-29T05:32:21;96075.09;;;17.86;100.00
2397;BME280;1209;48.410;9.054;2022-07-29T05:34:47;96072.28;;;17.99;100.00
2397;BME280;1209;48.410;9.054;2022-07-29T05:37:12;96071.28;;;18.12;100.00
2397;BME280;1209;48.410;9.054;2022-07-29T05:39:38;96077.16;;;18.25;100.00
2397;BME280;1209;48.410;9.054;2022-07-29T05:42:08;96076.94;;;18.39;100.00
2397;BME280;1209;48.410;9.054;2022-07-29T05:44:37;96080.09;;;18.47;100.00
2397;BME280;1209;48.410;9.054;2022-07-29T05:47:02;96080.19;;;18.52;100.00
2397;BME280;1209;48.410;9.054;2022-07-29T05:49:28;96075.72;;;18.53;100.00
2397;BME280;1209;48.410;9.054;2022-07-29T05:51:53;96084.81;;;18.57;100.00
2397;BME280;1209;48.410;9.054;2022-07-29T05:54:19;96082.31;;;18.62;100.00
2397;BME280;1209;48.410;9.054;2022-07-29T05:56:44;96085.94;;;18.61;100.00
2397;BME280;1209;48.410;9.054;2022-07-29T05:59:09;96088.63;;;18.73;100.00
2397;BME280;1209;48.410;9.054;2022-07-29T06:01:35;96083.78;;;18.81;100.00
2397;BME280;1209;48.410;9.054;2022-07-29T06:04:05;96095.44;;;18.92;100.00
2397;BME280;1209;48.410;9.054;2022-07-29T06:06:30;96091.94;;;18.92;100.00
2397;BME280;1209;48.410;9.054;2022-07-29T06:08:55;96091.84;;;19.10;100.00
2397;BME280;1209;48.410;9.054;2022-07-29T06:11:21;96091.81;;;19.22;100.00
2397;BME280;1209;48.410;9.054;2022-07-29T06:13:46;96095.59;;;19.37;100.00
2397;BME280;1209;48.410;9.054;2022-07-29T06:16:11;96090.25;;;18.97;100.00
2397;BME280;1209;48.410;9.054;2022-07-29T06:18:37;96097.59;;;19.07;100.00
2397;BME280;1209;48.410;9.054;2022-07-29T06:21:07;96098.50;;;19.12;100.00
2397;BME280;1209;48.410;9.054;2022-07-29T06:23:33;96095.47;;;19.32;100.00
2397;BME280;1209;48.410;9.054;2022-07-29T06:25:59;96102.72;;;19.37;100.00
2397;BME280;1209;48.410;9.054;2022-07-29T06:28:25;96104.09;;;19.51;100.00
2397;BME280;1209;48.410;9.054;2022-07-29T06:30:51;96103.53;;;19.61;100.00
2397;BME280;1209;48.410;9.054;2022-07-29T06:33:18;96102.28;;;19.92;100.00
2397;BME280;1209;48.410;9.054;2022-07-29T06:35:44;96104.88;;;20.20;100.00
2397;BME280;1209;48.410;9.054;2022-07-29T06:38:12;96103.31;;;20.36;100.00
2397;BME280;1209;48.410;9.054;2022-07-29T06:40:41;96103.88;;;20.38;100.00
2397;BME280;1209;48.410;9.054;2022-07-29T06:43:35;96110.25;;;20.70;100.00
2397;BME280;1209;48.410;9.054;2022-07-29T06:46:07;96116.78;;;20.96;100.00
2397;BME280;1209;48.410;9.054;2022-07-29T06:48:33;96112.59;;;21.00;100.00
2397;BME280;1209;48.410;9.054;2022-07-29T06:50:59;96111.28;;;21.03;100.00
2397;BME280;1209;48.410;9.054;2022-07-29T06:53:24;96111.66;;;21.28;100.00
2397;BME280;1209;48.410;9.054;2022-07-29T06:55:50;96121.28;;;21.29;100.00
2397;BME280;1209;48.410;9.054;2022-07-29T06:58:15;96121.28;;;21.29;100.00
2397;BME280;1209;48.410;9.054;2022-07-29T07:00:43;96120.03;;;21.37;100.00
2397;BME280;1209;48.410;9.054;2022-07-29T07:03:10;96123.31;;;21.66;100.00
2397;BME280;1209;48.410;9.054;2022-07-29T07:05:35;96131.59;;;21.69;100.00
2397;BME280;1209;48.410;9.054;2022-07-29T07:08:01;96137.59;;;21.82;100.00
2397;BME280;1209;48.410;9.054;2022-07-29T07:10:26;96138.28;;;21.94;100.00
2397;BME280;1209;48.410;9.054;2022-07-29T07:12:52;96142.97;;;21.87;100.00
2397;BME280;1209;48.410;9.054;2022-07-29T07:15:17;96146.44;;;22.09;100.00
2397;BME280;1209;48.410;9.054;2022-07-29T07:17:48;96149.97;;;22.15;100.00
2397;BME280;1209;48.410;9.054;2022-07-29T07:20:15;96146.44;;;22.09;100.00
2397;BME280;1209;48.410;9.054;2022-07-29T07:22:40;96148.25;;;22.04;100.00
2397;BME280;1209;48.410;9.054;2022-07-29T07:25:06;96149.19;;;22.19;100.00
2397;BME280;1209;48.410;9.054;2022-07-29T07:27:31;96153.91;;;22.34;100.00
2397;BME280;1209;48.410;9.054;2022-07-29T07:29:57;96151.66;;;22.53;100.00
2397;BME280;1209;48.410;9.054;2022-07-29T07:32:22;96151.88;;;22.46;100.00
2397;BME280;1209;48.410;9.054;2022-07-29T07:34:49;96152.00;;;22.61;100.00
2397;BME280;1209;48.410;9.054;2022-07-29T07:37:14;96153.56;;;22.84;100.00
2397;BME280;1209;48.410;9.054;2022-07-29T07:39:40;96144.72;;;23.16;100.00
2397;BME280;1209;48.410;9.054;2022-07-29T07:42:05;96145.94;;;23.35;100.00
2397;BME280;1209;48.410;9.054;2022-07-29T07:44:31;96151.13;;;23.57;100.00
2397;BME280;1209;48.410;9.054;2022-07-29T07:46:56;96154.34;;;23.59;100.00
2397;BME280;1209;48.410;9.054;2022-07-29T07:49:22;96154.78;;;23.46;100.00
2397;BME280;1209;48.410;9.054;2022-07-29T07:51:47;96152.56;;;23.28;100.00
2397;BME280;1209;48.410;9.054;2022-07-29T07:54:12;96161.88;;;23.25;100.00
2397;BME280;1209;48.410;9.054;2022-07-29T07:56:38;96157.09;;;23.27;100.00
2397;BME280;1209;48.410;9.054;2022-07-29T07:59:03;96159.47;;;23.23;100.00
2397;BME280;1209;48.410;9.054;2022-07-29T08:01:28;96157.38;;;23.31;100.00
2397;BME280;1209;48.410;9.054;2022-07-29T08:03:54;96156.34;;;23.37;100.00
2397;BME280;1209;48.410;9.054;2022-07-29T08:06:19;96148.69;;;23.50;100.00
2397;BME280;1209;48.410;9.054;2022-07-29T08:08:45;96148.38;;;23.47;100.00
2397;BME280;1209;48.410;9.054;2022-07-29T08:11:10;96151.69;;;23.59;100.00
2397;BME280;1209;48.410;9.054;2022-07-29T08:13:36;96142.72;;;23.80;100.00
2397;BME280;1209;48.410;9.054;2022-07-29T08:16:02;96141.72;;;24.07;100.00
2397;BME280;1209;48.410;9.054;2022-07-29T08:18:38;96139.16;;;24.37;100.00
2397;BME280;1209;48.410;9.054;2022-07-29T08:21:03;96149.56;;;24.34;100.00
2397;BME280;1209;48.410;9.054;2022-07-29T08:23:29;96147.47;;;24.56;100.00
2397;BME280;1209;48.410;9.054;2022-07-29T08:26:03;96146.97;;;24.69;100.00
2397;BME280;1209;48.410;9.054;2022-07-29T08:28:29;96150.97;;;24.82;100.00
2397;BME280;1209;48.410;9.054;2022-07-29T08:30:55;96149.34;;;24.91;100.00
2397;BME280;1209;48.410;9.054;2022-07-29T08:33:20;96153.13;;;25.10;100.00
2397;BME280;1209;48.410;9.054;2022-07-29T08:35:46;96168.91;;;25.17;94.67
2397;BME280;1209;48.410;9.054;2022-07-29T08:38:11;96165.66;;;25.35;100.00
2397;BME280;1209;48.410;9.054;2022-07-29T08:40:36;96161.06;;;25.56;97.13
2397;BME280;1209;48.410;9.054;2022-07-29T08:43:08;96172.00;;;25.65;97.39
2397;BME280;1209;48.410;9.054;2022-07-29T08:45:41;96169.56;;;25.84;94.87
2397;BME280;1209;48.410;9.054;2022-07-29T08:48:08;96177.91;;;25.47;89.73
2397;BME280;1209;48.410;9.054;2022-07-29T08:50:35;96177.91;;;25.52;93.52
2397;BME280;1209;48.410;9.054;2022-07-29T08:53:01;96173.81;;;25.90;94.23
2397;BME280;1209;48.410;9.054;2022-07-29T08:55:27;96169.09;;;25.56;88.38
2397;BME280;1209;48.410;9.054;2022-07-29T08:57:53;96169.53;;;25.89;91.51
2397;BME280;1209;48.410;9.054;2022-07-29T09:00:19;96177.66;;;26.33;91.58
2397;BME280;1209;48.410;9.054;2022-07-29T09:02:50;96174.59;;;26.55;89.65
2397;BME280;1209;48.410;9.054;2022-07-29T09:05:17;96167.59;;;26.59;84.45
2397;BME280;1209;48.410;9.054;2022-07-29T09:07:43;96172.28;;;26.77;86.37
2397;BME280;1209;48.410;9.054;2022-07-29T09:10:09;96175.94;;;26.91;85.88
2397;BME280;1209;48.410;9.054;2022-07-29T09:12:35;96179.41;;;26.97;84.79
2397;BME280;1209;48.410;9.054;2022-07-29T09:15:00;96168.41;;;26.99;87.47
2397;BME280;1209;48.410;9.054;2022-07-29T09:17:46;96178.88;;;26.90;88.58
2397;BME280;1209;48.410;9.054;2022-07-29T09:20:21;96181.13;;;26.78;85.90
2397;BME280;1209;48.410;9.054;2022-07-29T09:22:48;96171.06;;;26.64;86.14
2397;BME280;1209;48.410;9.054;2022-07-29T09:25:37;96171.16;;;26.44;82.76
2397;BME280;1209;48.410;9.054;2022-07-29T09:28:09;96168.88;;;26.66;87.34
2397;BME280;1209;48.410;9.054;2022-07-29T09:30:35;96174.88;;;26.87;100.00
2397;BME280;1209;48.410;9.054;2022-07-29T09:33:02;96173.75;;;26.93;88.02
2397;BME280;1209;48.410;9.054;2022-07-29T09:35:29;96174.28;;;26.95;83.95
2397;BME280;1209;48.410;9.054;2022-07-29T09:37:55;96171.59;;;26.95;84.29
2397;BME280;1209;48.410;9.054;2022-07-29T09:40:23;96168.69;;;27.26;84.80
2397;BME280;1209;48.410;9.054;2022-07-29T09:42:50;96158.09;;;27.40;79.58
2397;BME280;1209;48.410;9.054;2022-07-29T09:45:30;96158.78;;;27.79;80.57
2397;BME280;1209;48.410;9.054;2022-07-29T09:47:55;96163.97;;;27.95;78.90
2397;BME280;1209;48.410;9.054;2022-07-29T09:50:35;96161.22;;;27.76;75.57
2397;BME280;1209;48.410;9.054;2022-07-29T09:53:00;96159.00;;;27.83;80.44
2397;BME280;1209;48.410;9.054;2022-07-29T09:55:25;96152.81;;;27.58;81.78
2397;BME280;1209;48.410;9.054;2022-07-29T09:57:51;96148.22;;;27.64;76.59
2397;BME280;1209;48.410;9.054;2022-07-29T10:00:19;96142.88;;;27.83;77.72
2397;BME280;1209;48.410;9.054;2022-07-29T10:02:45;96138.88;;;27.56;76.86
2397;BME280;1209;48.410;9.054;2022-07-29T10:05:22;96135.53;;;27.41;78.35
2397;BME280;1209;48.410;9.054;2022-07-29T10:07:56;96132.78;;;27.22;85.73
2397;BME280;1209;48.410;9.054;2022-07-29T10:10:25;96130.72;;;26.80;83.06
2397;BME280;1209;48.410;9.054;2022-07-29T10:15:24;96125.56;;;26.54;89.07
2397;BME280;1209;48.410;9.054;2022-07-29T10:17:52;96127.38;;;26.64;87.55
2397;BME280;1209;48.410;9.054;2022-07-29T10:20:18;96119.09;;;26.60;81.81
2397;BME280;1209;48.410;9.054;2022-07-29T10:22:44;96121.94;;;26.35;87.26
2397;BME280;1209;48.410;9.054;2022-07-29T10:25:12;96123.75;;;26.45;86.09
2397;BME280;1209;48.410;9.054;2022-07-29T10:27:39;96121.59;;;26.47;83.89
2397;BME280;1209;48.410;9.054;2022-07-29T10:30:06;96122.28;;;26.96;83.36
2397;BME280;1209;48.410;9.054;2022-07-29T10:37:51;96121.16;;;27.32;79.95
2397;BME280;1209;48.410;9.054;2022-07-29T10:43:18;96123.09;;;27.26;83.19
2397;BME280;1209;48.410;9.054;2022-07-29T10:45:46;96120.97;;;27.23;81.52
2397;BME280;1209;48.410;9.054;2022-07-29T10:48:13;96118.22;;;27.04;81.84
2397;BME280;1209;48.410;9.054;2022-07-29T10:51:00;96121.56;;;27.20;85.12
2397;BME280;1209;48.410;9.054;2022-07-29T10:53:47;96115.97;;;27.16;80.77
2397;BME280;1209;48.410;9.054;2022-07-29T10:56:26;96115.84;;;26.97;84.76
2397;BME280;1209;48.410;9.054;2022-07-29T11:01:46;96112.75;;;26.80;90.52
2397;BME280;1209;48.410;9.054;2022-07-29T11:04:12;96103.69;;;26.76;80.84
2397;BME280;1209;48.410;9.054;2022-07-29T11:09:31;96110.31;;;26.84;90.93
2397;BME280;1209;48.410;9.054;2022-07-29T11:11:57;96109.53;;;26.83;82.41
2397;BME280;1209;48.410;9.054;2022-07-29T11:14:55;96116.25;;;26.81;81.43
2397;BME280;1209;48.410;9.054;2022-07-29T11:17:20;96111.13;;;26.84;85.92
2397;BME280;1209;48.410;9.054;2022-07-29T11:19:46;96116.69;;;26.98;85.99
2397;BME280;1209;48.410;9.054;2022-07-29T11:22:31;96112.59;;;27.06;91.38
2397;BME280;1209;48.410;9.054;2022-07-29T11:25:14;96110.50;;;26.92;82.32
2397;BME280;1209;48.410;9.054;2022-07-29T11:27:39;96103.00;;;27.00;91.59
2397;BME280;1209;48.410;9.054;2022-07-29T11:30:05;96108.66;;;27.22;81.15
2397;BME280;1209;48.410;9.054;2022-07-29T11:32:42;96105.78;;;27.66;79.89
2397;BME280;1209;48.410;9.054;2022-07-29T11:37:42;96113.31;;;29.28;71.49
2397;BME280;1209;48.410;9.054;2022-07-29T11:40:10;96098.72;;;29.62;71.04
2397;BME280;1209;48.410;9.054;2022-07-29T11:45:17;96115.66;;;28.89;72.87
2397;BME280;1209;48.410;9.054;2022-07-29T11:47:48;96112.69;;;28.90;70.90
2397;BME280;1209;48.410;9.054;2022-07-29T11:50:30;96110.41;;;28.78;72.86
2397;BME280;1209;48.410;9.054;2022-07-29T11:52:56;96115.88;;;28.17;73.01
2397;BME280;1209;48.410;9.054;2022-07-29T11:55:22;96113.47;;;27.97;71.89
2397;BME280;1209;48.410;9.054;2022-07-29T11:57:59;96118.22;;;27.81;75.94
2397;BME280;1209;48.410;9.054;2022-07-29T12:03:01;96115.84;;;27.26;77.51
2397;BME280;1209;48.410;9.054;2022-07-29T12:05:40;96116.59;;;27.32;76.03
2397;BME280;1209;48.410;9.054;2022-07-29T12:08:11;96120.75;;;27.19;79.27
2397;BME280;1209;48.410;9.054;2022-07-29T12:10:38;96118.69;;;27.11;76.34
2397;BME280;1209;48.410;9.054;2022-07-29T12:13:03;96120.94;;;26.94;83.39
2397;BME280;1209;48.410;9.054;2022-07-29T12:15:29;96125.19;;;26.71;81.24
2397;BME280;1209;48.410;9.054;2022-07-29T12:17:54;96132.31;;;26.47;79.63
2397;BME280;1209;48.410;9.054;2022-07-29T12:20:28;96137.50;;;26.33;81.19
2397;BME280;1209;48.410;9.054;2022-07-29T12:22:54;96156.94;;;25.94;89.55
2397;BME280;1209;48.410;9.054;2022-07-29T12:25:21;96164.81;;;25.60;100.00
2397;BME280;1209;48.410;9.054;2022-07-29T12:27:57;96176.47;;;24.17;100.00
2397;BME280;1209;48.410;9.054;2022-07-29T12:30:35;96181.13;;;23.37;100.00
2397;BME280;1209;48.410;9.054;2022-07-29T12:33:00;96158.00;;;22.20;100.00
2397;BME280;1209;48.410;9.054;2022-07-29T12:35:26;96156.56;;;22.34;100.00
2397;BME280;1209;48.410;9.054;2022-07-29T12:37:52;96149.50;;;22.50;100.00
2397;BME280;1209;48.410;9.054;2022-07-29T12:40:18;96141.59;;;22.28;100.00
2397;BME280;1209;48.410;9.054;2022-07-29T12:43:08;96135.28;;;22.34;100.00
2397;BME280;1209;48.410;9.054;2022-07-29T12:45:35;96134.97;;;22.62;100.00
2397;BME280;1209;48.410;9.054;2022-07-29T12:48:01;96134.19;;;22.62;100.00
2397;BME280;1209;48.410;9.054;2022-07-29T12:50:26;96123.81;;;22.92;100.00
2397;BME280;1209;48.410;9.054;2022-07-29T12:52:52;96130.69;;;23.26;100.00
2397;BME280;1209;48.410;9.054;2022-07-29T12:58:04;96128.34;;;23.39;100.00
2397;BME280;1209;48.410;9.054;2022-07-29T13:00:30;96145.38;;;23.80;100.00
2397;BME280;1209;48.410;9.054;2022-07-29T13:02:56;96143.22;;;23.72;100.00
2397;BME280;1209;48.410;9.054;2022-07-29T13:05:22;96134.75;;;23.96;100.00
2397;BME280;1209;48.410;9.054;2022-07-29T13:07:48;96141.19;;;24.10;100.00
2397;BME280;1209;48.410;9.054;2022-07-29T13:10:17;96134.63;;;23.60;100.00
2397;BME280;1209;48.410;9.054;2022-07-29T13:13:09;96122.53;;;23.47;100.00
2397;BME280;1209;48.410;9.054;2022-07-29T13:15:40;96125.56;;;23.61;100.00
2397;BME280;1209;48.410;9.054;2022-07-29T13:18:26;96121.66;;;23.84;100.00
2397;BME280;1209;48.410;9.054;2022-07-29T13:20:52;96136.91;;;23.99;100.00
2397;BME280;1209;48.410;9.054;2022-07-29T13:23:17;96146.56;;;24.15;100.00
2397;BME280;1209;48.410;9.054;2022-07-29T13:25:42;96146.03;;;24.13;100.00
2397;BME280;1209;48.410;9.054;2022-07-29T13:28:08;96149.19;;;24.05;100.00
2397;BME280;1209;48.410;9.054;2022-07-29T13:30:33;96153.00;;;24.24;100.00
2397;BME280;1209;48.410;9.054;2022-07-29T13:32:59;96163.75;;;24.49;100.00
2397;BME280;1209;48.410;9.054;2022-07-29T13:35:24;96157.88;;;24.58;100.00
2397;BME280;1209;48.410;9.054;2022-07-29T13:37:50;96156.06;;;24.99;100.00
2397;BME280;1209;48.410;9.054;2022-07-29T13:40:15;96161.41;;;25.09;100.00
2397;BME280;1209;48.410;9.054;2022-07-29T13:42:41;96149.38;;;24.76;100.00
2397;BME280;1209;48.410;9.054;2022-07-29T13:45:08;96154.19;;;24.99;100.00
2397;BME280;1209;48.410;9.054;2022-07-29T13:47:33;96155.25;;;25.03;100.00
2397;BME280;1209;48.410;9.054;2022-07-29T13:50:00;96150.38;;;25.41;100.00
2397;BME280;1209;48.410;9.054;2022-07-29T13:52:26;96148.78;;;25.55;100.00